Time;durP1;ratioP1;P1;durP2;ratioP2;P2;SDS_P1;SDS_P2;PMS_P1;PMS_P2;Temp;Humidity;BMP_temperature;BMP_pressure;BME280_temperature;BME280_humidity;BME280_pressure;Samples;Min_cycle;Max_cycle;Signal;HPM_P1;HPM_P2
2023/07/10 00:00:35;;;;;;;3.35;2.20;;;;;;;24.14;100.00;99555.06;30877953;28;20498;-75
2023/07/10 00:15:38;;;;;;;3.85;2.00;;;;;;;24.09;100.00;99553.09;30885658;28;20061;-77
2023/07/10 00:30:40;;;;;;;7.13;2.10;;;;;;;24.09;100.00;99547.56;30877306;28;20486;-72
2023/07/10 00:45:42;;;;;;;5.50;2.08;;;;;;;23.93;100.00;99550.56;30870301;28;20051;-73
2023/07/10 01:01:09;;;;;;;3.08;2.10;;;;;;;23.82;100.00;99534.84;30869258;28;20057;-74
2023/07/10 01:16:11;;;;;;;3.33;2.40;;;;;;;23.86;100.00;99540.81;30853506;28;20043;-73
2023/07/10 01:31:17;;;;;;;3.67;2.50;;;;;;;23.90;100.00;99546.81;30867503;28;20051;-73
2023/07/10 01:46:22;;;;;;;5.78;3.00;;;;;;;23.76;100.00;99564.63;30864268;28;20129;-72
2023/07/10 02:01:24;;;;;;;4.55;2.70;;;;;;;23.73;100.00;99576.75;30866310;28;20127;-72
2023/07/10 02:16:27;;;;;;;5.93;2.83;;;;;;;23.61;100.00;99592.03;30862698;28;20054;-73
2023/07/10 02:31:29;;;;;;;7.43;2.70;;;;;;;23.53;100.00;99597.38;30863220;28;20415;-72
2023/07/10 02:46:31;;;;;;;6.32;3.55;;;;;;;23.44;100.00;99609.53;30858064;28;20054;-72
2023/07/10 03:01:33;;;;;;;6.53;3.30;;;;;;;23.46;100.00;99603.47;30879865;28;20058;-73
2023/07/10 03:16:35;;;;;;;9.95;3.70;;;;;;;23.62;100.00;99610.16;30879477;28;20807;-74
2023/07/10 03:31:37;;;;;;;7.82;3.03;;;;;;;24.08;100.00;99632.03;30883879;28;20101;-73
2023/07/10 03:46:39;;;;;;;6.47;3.90;;;;;;;24.78;100.00;99655.06;30881846;28;20059;-74
2023/07/10 04:01:43;;;;;;;8.27;3.92;;;;;;;25.41;100.00;99664.69;30876743;28;20492;-73
2023/07/10 04:16:52;;;;;;;7.43;3.40;;;;;;;25.98;98.20;99675.56;30876298;28;20059;-74
2023/07/10 04:31:54;;;;;;;10.05;3.50;;;;;;;26.39;96.24;99675.78;30875064;28;20047;-76
2023/07/10 04:46:56;;;;;;;6.43;3.50;;;;;;;26.69;91.24;99671.84;30872696;28;20401;-74
2023/07/10 05:01:58;;;;;;;6.70;3.35;;;;;;;27.38;87.55;99685.16;30877000;28;20860;-74
2023/07/10 05:17:00;;;;;;;5.93;3.00;;;;;;;28.12;82.97;99679.88;30872879;28;20072;-75
2023/07/10 05:32:02;;;;;;;7.90;3.53;;;;;;;28.59;79.13;99676.00;30870852;28;20054;-75
2023/07/10 05:47:05;;;;;;;5.37;3.00;;;;;;;28.98;77.32;99683.22;30867675;28;20057;-74
2023/07/10 06:02:10;;;;;;;5.88;3.10;;;;;;;29.58;74.89;99686.63;30868651;28;20070;-75
2023/07/10 06:17:13;;;;;;;3.30;2.30;;;;;;;29.67;75.20;99683.25;30866956;28;20401;-75
2023/07/10 06:32:15;;;;;;;2.73;2.07;;;;;;;29.94;70.93;99684.34;30867521;28;20061;-74
2023/07/10 06:47:17;;;;;;;4.55;2.40;;;;;;;30.44;66.64;99676.91;30859047;28;20082;-75
2023/07/10 07:02:18;;;;;;;;;;;;;;;31.22;63.02;99664.69;30860407;28;20061;-75
2023/07/10 07:17:20;;;;;;;2.03;1.60;;;;;;;31.57;58.56;99670.38;30863328;28;19922;-75
2023/07/10 07:32:22;;;;;;;5.30;1.80;;;;;;;31.98;57.12;99669.59;30860457;28;20101;-76
2023/07/10 07:47:27;;;;;;;3.50;1.90;;;;;;;32.90;53.19;99662.84;30879438;28;20050;-75
2023/07/10 08:02:30;;;;;;;2.88;1.40;;;;;;;32.91;52.10;99653.09;30877305;28;20138;-74
2023/07/10 08:17:32;;;;;;;3.00;1.48;;;;;;;32.39;50.80;99656.03;30877145;28;20535;-74
2023/07/10 08:32:34;;;;;;;2.13;1.20;;;;;;;32.86;49.22;99647.16;30871920;28;20055;-74
2023/07/10 08:47:42;;;;;;;2.42;1.60;;;;;;;33.00;46.12;99635.53;30869181;28;20090;-75
2023/07/10 09:02:55;;;;;;;3.45;1.33;;;;;;;34.17;43.50;99641.50;30870593;28;20115;-73
2023/07/10 09:18:18;;;;;;;2.20;1.08;;;;;;;35.02;41.00;99629.09;30872198;28;20575;-74
2023/07/10 09:33:20;;;;;;;3.38;1.40;;;;;;;34.86;41.13;99618.22;30856542;28;20071;-76
2023/07/10 09:48:36;;;;;;;1.45;1.10;;;;;;;34.97;39.05;99616.06;30862400;28;20568;-75
2023/07/10 10:03:43;;;;;;;7.47;2.63;;;;;;;34.39;41.04;99621.91;30866015;28;20059;-75
2023/07/10 10:19:01;;;;;;;1.70;1.25;;;;;;;35.42;40.04;99614.22;30864487;28;20051;-76
2023/07/10 10:34:15;;;;;;;2.95;1.70;;;;;;;35.51;38.51;99616.94;30862026;28;20604;-74
2023/07/10 10:49:23;;;;;;;4.25;1.58;;;;;;;36.01;39.52;99620.88;30860189;28;20055;-75
2023/07/10 11:04:46;;;;;;;2.00;1.23;;;;;;;35.38;38.99;99625.97;30860571;28;20047;-75
2023/07/10 11:19:50;;;;;;;3.05;1.35;;;;;;;36.47;38.42;99611.81;30876443;28;20089;-77
2023/07/10 11:35:16;;;;;;;5.55;1.30;;;;;;;34.71;39.49;99621.38;30878666;28;20102;-76
2023/07/10 11:50:27;;;;;;;2.87;1.30;;;;;;;33.44;41.63;99624.84;30884950;28;20098;-75
2023/07/10 12:05:37;;;;;;;3.83;1.67;;;;;;;32.33;42.79;99641.53;30877659;28;20523;-75
2023/07/10 12:20:39;;;;;;;3.15;2.25;;;;;;;32.70;42.89;99631.81;30877952;28;20142;-77
2023/07/10 12:35:42;;;;;;;2.72;1.48;;;;;;;33.30;42.91;99626.63;30868859;28;20061;-76
2023/07/10 12:50:47;;;;;;;2.20;1.33;;;;;;;32.91;41.40;99630.59;30875124;28;20157;-75
2023/07/10 13:05:58;;;;;;;2.97;1.17;;;;;;;32.67;41.80;99630.16;30865996;28;20304;-77
2023/07/10 13:21:04;;;;;;;1.83;1.40;;;;;;;32.49;41.53;99621.06;30867543;28;20050;-76
2023/07/10 13:36:16;;;;;;;2.88;1.23;;;;;;;32.29;42.54;99618.72;30867015;28;20058;-75
2023/07/10 13:51:20;;;;;;;3.00;1.58;;;;;;;31.89;42.16;99605.72;30866402;28;20047;-76
2023/07/10 14:06:47;;;;;;;1.77;1.13;;;;;;;31.57;42.61;99605.88;30862164;28;20050;-77
2023/07/10 14:21:49;;;;;;;1.45;1.23;;;;;;;31.41;43.09;99622.84;30862783;28;20465;-76
2023/07/10 14:36:51;;;;;;;2.00;1.25;;;;;;;31.36;42.38;99623.84;30859578;28;20140;-76
2023/07/10 14:51:53;;;;;;;1.83;1.30;;;;;;;31.37;43.49;99618.97;30857081;28;20050;-77
2023/07/10 15:06:57;;;;;;;4.07;1.38;;;;;;;30.63;44.75;99662.47;30860935;28;20047;-77
2023/07/10 15:21:59;;;;;;;9.43;2.90;;;;;;;30.35;49.27;99654.34;30863848;28;20062;-78
2023/07/10 15:37:01;;;;;;;4.20;1.85;;;;;;;30.40;51.14;99667.41;30860515;28;20086;-78
2023/07/10 15:52:03;;;;;;;3.10;1.58;;;;;;;30.12;51.26;99662.84;30860197;28;20101;-78
2023/07/10 16:07:05;;;;;;;2.75;1.63;;;;;;;29.93;50.67;99660.47;30875539;28;20381;-78
2023/07/10 16:22:14;;;;;;;;;;;;;;;29.69;51.58;99670.22;30875392;28;20074;-79
2023/07/10 16:37:16;;;;;;;4.57;2.00;;;;;;;29.41;52.02;99671.16;30874076;28;20310;-76
2023/07/10 16:52:18;;;;;;;2.23;1.60;;;;;;;28.89;51.38;99685.81;30874767;28;20158;-75
2023/07/10 17:07:20;;;;;;;2.27;1.40;;;;;;;28.42;51.61;99698.84;30868391;28;20150;-78
2023/07/10 17:22:32;;;;;;;4.03;2.13;;;;;;;28.06;52.99;99693.28;30866446;28;20508;-77
2023/07/10 17:37:34;;;;;;;16.33;5.57;;;;;;;27.67;54.85;99696.34;30872438;28;20153;-79
2023/07/10 17:52:36;;;;;;;6.10;3.60;;;;;;;27.30;57.09;99703.84;30862854;28;20192;-77
2023/07/10 18:07:38;;;;;;;3.00;2.20;;;;;;;27.10;58.63;99712.94;30856971;28;20501;-78
2023/07/10 18:22:41;;;;;;;4.83;2.53;;;;;;;27.02;59.80;99700.97;30861557;28;20051;-78
2023/07/10 18:37:43;;;;;;;2.50;1.85;;;;;;;26.83;61.57;99707.44;30858010;28;20113;-79
2023/07/10 18:52:46;;;;;;;6.00;1.87;;;;;;;26.59;63.52;99707.72;30864412;28;20083;-79
2023/07/10 19:07:48;;;;;;;4.97;1.97;;;;;;;26.37;66.86;99699.84;30852277;28;20102;-78
2023/07/10 19:22:52;;;;;;;10.47;4.50;;;;;;;26.24;69.25;99708.91;30855012;28;20138;-77
2023/07/10 19:37:54;;;;;;;3.60;2.15;;;;;;;26.18;70.29;99694.38;30866825;28;20145;-76
2023/07/10 19:52:56;;;;;;;3.22;2.33;;;;;;;26.17;71.46;99704.78;30877458;28;20485;-77
2023/07/10 20:07:58;;;;;;;3.30;2.10;;;;;;;26.09;73.07;99709.47;30872507;28;20085;-76
2023/07/10 20:23:00;;;;;;;3.93;2.60;;;;;;;25.65;76.79;99682.50;30875179;28;20059;-76
2023/07/10 20:38:03;;;;;;;8.63;4.57;;;;;;;25.55;79.32;99689.72;30870677;28;20050;-77
2023/07/10 20:53:13;;;;;;;3.37;1.80;;;;;;;25.38;82.55;99696.31;30872003;28;20555;-77
2023/07/10 21:08:17;;;;;;;2.70;2.05;;;;;;;25.14;83.91;99679.78;30872160;28;20059;-78
2023/07/10 21:23:23;;;;;;;3.28;2.35;;;;;;;25.03;87.44;99663.31;30871093;28;20568;-77
2023/07/10 21:38:25;;;;;;;6.72;3.80;;;;;;;24.93;88.29;99654.59;30866446;28;20056;-77
2023/07/10 21:53:29;;;;;;;3.77;2.13;;;;;;;24.98;90.45;99661.38;30866945;28;20531;-77
2023/07/10 22:08:32;;;;;;;3.55;2.08;;;;;;;24.80;92.11;99641.41;30861983;28;20408;-76
2023/07/10 22:23:34;;;;;;;2.28;1.77;;;;;;;24.70;94.31;99636.78;30863118;28;20090;-77
2023/07/10 22:38:36;;;;;;;5.85;1.83;;;;;;;24.58;96.55;99627.84;30868798;28;20082;-77
2023/07/10 22:53:39;;;;;;;4.03;2.53;;;;;;;24.29;99.72;99617.69;30862614;28;20058;-77
2023/07/10 23:08:41;;;;;;;4.72;2.53;;;;;;;23.89;100.00;99617.38;30861918;28;20089;-76
2023/07/10 23:23:44;;;;;;;5.95;2.33;;;;;;;23.69;100.00;99626.16;30885934;28;20517;-75
2023/07/10 23:38:46;;;;;;;5.30;2.73;;;;;;;23.64;100.00;99629.75;30884188;28;20051;-75
2023/07/10 23:53:48;;;;;;;3.05;2.30;;;;;;;23.72;100.00;99623.13;30879797;28;20054;-76
